sensor_id;sensor_type;location;lat;lon;timestamp;temperature;humidity
22379;DHT22;11357;49.990;7.370;2023-04-01T00:00:18;11.70;90.60
22379;DHT22;11357;49.990;7.370;2023-04-01T00:02:44;11.60;90.60
22379;DHT22;11357;49.990;7.370;2023-04-01T00:05:10;11.70;90.60
22379;DHT22;11357;49.990;7.370;2023-04-01T00:07:37;11.70;90.60
22379;DHT22;11357;49.990;7.370;2023-04-01T00:10:18;11.60;90.70
22379;DHT22;11357;49.990;7.370;2023-04-01T00:12:44;11.60;90.80
22379;DHT22;11357;49.990;7.370;2023-04-01T00:15:11;11.60;90.80
22379;DHT22;11357;49.990;7.370;2023-04-01T00:17:37;11.60;90.80
22379;DHT22;11357;49.990;7.370;2023-04-01T00:20:04;11.60;90.80
22379;DHT22;11357;49.990;7.370;2023-04-01T00:22:30;11.60;90.90
22379;DHT22;11357;49.990;7.370;2023-04-01T00:24:56;11.60;90.90
22379;DHT22;11357;49.990;7.370;2023-04-01T00:27:22;11.60;90.90
22379;DHT22;11357;49.990;7.370;2023-04-01T00:29:48;11.50;90.90
22379;DHT22;11357;49.990;7.370;2023-04-01T00:32:14;11.50;91.00
22379;DHT22;11357;49.990;7.370;2023-04-01T00:34:40;11.50;91.10
22379;DHT22;11357;49.990;7.370;2023-04-01T00:37:07;11.40;91.10
22379;DHT22;11357;49.990;7.370;2023-04-01T00:39:34;11.40;91.10
22379;DHT22;11357;49.990;7.370;2023-04-01T00:42:00;11.40;91.20
22379;DHT22;11357;49.990;7.370;2023-04-01T00:44:31;11.40;91.20
22379;DHT22;11357;49.990;7.370;2023-04-01T00:46:58;11.40;91.30
22379;DHT22;11357;49.990;7.370;2023-04-01T00:49:32;11.40;91.30
22379;DHT22;11357;49.990;7.370;2023-04-01T00:52:00;11.40;91.60
22379;DHT22;11357;49.990;7.370;2023-04-01T00:54:28;11.40;91.30
22379;DHT22;11357;49.990;7.370;2023-04-01T00:59:30;11.30;91.30
22379;DHT22;11357;49.990;7.370;2023-04-01T01:01:57;11.30;91.30
22379;DHT22;11357;49.990;7.370;2023-04-01T01:04:26;11.30;91.20
22379;DHT22;11357;49.990;7.370;2023-04-01T01:07:06;11.40;91.20
22379;DHT22;11357;49.990;7.370;2023-04-01T01:17:46;11.30;91.00
22379;DHT22;11357;49.990;7.370;2023-04-01T01:29:16;11.30;90.90
22379;DHT22;11357;49.990;7.370;2023-04-01T01:36:56;11.30;90.90
22379;DHT22;11357;49.990;7.370;2023-04-01T01:39:27;11.40;91.00
22379;DHT22;11357;49.990;7.370;2023-04-01T01:42:04;11.30;90.90
22379;DHT22;11357;49.990;7.370;2023-04-01T01:44:32;11.30;90.90
22379;DHT22;11357;49.990;7.370;2023-04-01T01:47:00;11.30;90.90
22379;DHT22;11357;49.990;7.370;2023-04-01T01:49:27;11.30;90.90
22379;DHT22;11357;49.990;7.370;2023-04-01T01:51:56;11.30;90.90
22379;DHT22;11357;49.990;7.370;2023-04-01T01:54:22;11.30;91.00
22379;DHT22;11357;49.990;7.370;2023-04-01T01:56:51;11.30;91.00
22379;DHT22;11357;49.990;7.370;2023-04-01T01:59:19;11.30;91.00
22379;DHT22;11357;49.990;7.370;2023-04-01T02:01:49;11.30;91.10
22379;DHT22;11357;49.990;7.370;2023-04-01T02:04:18;11.30;91.10
22379;DHT22;11357;49.990;7.370;2023-04-01T02:06:58;11.30;91.00
22379;DHT22;11357;49.990;7.370;2023-04-01T02:09:25;11.20;91.00
22379;DHT22;11357;49.990;7.370;2023-04-01T02:11:55;11.30;91.00
22379;DHT22;11357;49.990;7.370;2023-04-01T02:14:28;11.20;91.00
22379;DHT22;11357;49.990;7.370;2023-04-01T02:17:07;11.20;91.00
22379;DHT22;11357;49.990;7.370;2023-04-01T02:19:40;11.20;91.10
22379;DHT22;11357;49.990;7.370;2023-04-01T02:22:16;11.20;91.00
22379;DHT22;11357;49.990;7.370;2023-04-01T02:24:43;11.20;91.10
22379;DHT22;11357;49.990;7.370;2023-04-01T02:27:11;11.20;91.10
22379;DHT22;11357;49.990;7.370;2023-04-01T02:29:37;11.20;91.10
22379;DHT22;11357;49.990;7.370;2023-04-01T02:32:05;11.20;91.20
22379;DHT22;11357;49.990;7.370;2023-04-01T02:34:31;11.20;91.20
22379;DHT22;11357;49.990;7.370;2023-04-01T02:36:58;11.20;91.20
22379;DHT22;11357;49.990;7.370;2023-04-01T02:39:24;11.20;91.30
22379;DHT22;11357;49.990;7.370;2023-04-01T02:41:52;11.10;91.30
22379;DHT22;11357;49.990;7.370;2023-04-01T02:44:18;11.20;91.40
22379;DHT22;11357;49.990;7.370;2023-04-01T02:46:44;11.20;91.40
22379;DHT22;11357;49.990;7.370;2023-04-01T02:49:10;11.20;91.80
22379;DHT22;11357;49.990;7.370;2023-04-01T02:51:36;11.10;91.50
22379;DHT22;11357;49.990;7.370;2023-04-01T02:54:02;11.20;91.60
22379;DHT22;11357;49.990;7.370;2023-04-01T02:56:28;11.10;91.60
22379;DHT22;11357;49.990;7.370;2023-04-01T02:58:55;11.10;91.90
22379;DHT22;11357;49.990;7.370;2023-04-01T03:01:21;11.10;91.70
22379;DHT22;11357;49.990;7.370;2023-04-01T03:03:47;11.10;91.70
22379;DHT22;11357;49.990;7.370;2023-04-01T03:06:15;11.10;91.70
22379;DHT22;11357;49.990;7.370;2023-04-01T03:08:41;11.10;91.70
22379;DHT22;11357;49.990;7.370;2023-04-01T03:11:06;11.10;91.60
22379;DHT22;11357;49.990;7.370;2023-04-01T03:13:32;11.10;91.60
22379;DHT22;11357;49.990;7.370;2023-04-01T03:15:58;11.00;91.70
22379;DHT22;11357;49.990;7.370;2023-04-01T03:18:24;11.10;91.70
22379;DHT22;11357;49.990;7.370;2023-04-01T03:20:49;11.10;91.70
22379;DHT22;11357;49.990;7.370;2023-04-01T03:23:15;11.10;91.80
22379;DHT22;11357;49.990;7.370;2023-04-01T03:25:43;11.10;91.80
22379;DHT22;11357;49.990;7.370;2023-04-01T03:28:09;11.10;91.80
22379;DHT22;11357;49.990;7.370;2023-04-01T03:30:35;11.10;91.80
22379;DHT22;11357;49.990;7.370;2023-04-01T03:33:01;11.10;91.80
22379;DHT22;11357;49.990;7.370;2023-04-01T03:35:28;11.10;91.80
22379;DHT22;11357;49.990;7.370;2023-04-01T03:37:54;11.10;91.80
22379;DHT22;11357;49.990;7.370;2023-04-01T03:40:21;11.00;91.70
22379;DHT22;11357;49.990;7.370;2023-04-01T03:42:47;11.10;91.80
22379;DHT22;11357;49.990;7.370;2023-04-01T03:45:12;11.10;91.70
22379;DHT22;11357;49.990;7.370;2023-04-01T03:47:39;11.00;91.60
22379;DHT22;11357;49.990;7.370;2023-04-01T03:50:06;11.00;91.60
22379;DHT22;11357;49.990;7.370;2023-04-01T03:52:32;11.00;91.70
22379;DHT22;11357;49.990;7.370;2023-04-01T03:54:58;11.00;91.70
22379;DHT22;11357;49.990;7.370;2023-04-01T03:57:24;11.00;91.70
22379;DHT22;11357;49.990;7.370;2023-04-01T03:59:50;11.00;91.70
22379;DHT22;11357;49.990;7.370;2023-04-01T04:02:16;11.00;91.60
22379;DHT22;11357;49.990;7.370;2023-04-01T04:04:42;10.90;91.70
22379;DHT22;11357;49.990;7.370;2023-04-01T04:07:08;10.90;91.70
22379;DHT22;11357;49.990;7.370;2023-04-01T04:09:34;10.90;91.70
22379;DHT22;11357;49.990;7.370;2023-04-01T04:12:00;11.00;91.80
22379;DHT22;11357;49.990;7.370;2023-04-01T04:14:26;10.90;91.80
22379;DHT22;11357;49.990;7.370;2023-04-01T04:16:52;10.90;91.80
22379;DHT22;11357;49.990;7.370;2023-04-01T04:19:18;10.90;91.80
22379;DHT22;11357;49.990;7.370;2023-04-01T04:21:44;10.90;91.80
22379;DHT22;11357;49.990;7.370;2023-04-01T04:24:09;10.90;91.90
22379;DHT22;11357;49.990;7.370;2023-04-01T04:26:36;10.90;91.80
22379;DHT22;11357;49.990;7.370;2023-04-01T04:29:02;10.90;91.80
22379;DHT22;11357;49.990;7.370;2023-04-01T04:31:28;10.90;91.80
22379;DHT22;11357;49.990;7.370;2023-04-01T04:33:54;11.00;91.80
22379;DHT22;11357;49.990;7.370;2023-04-01T04:36:21;11.00;91.80
22379;DHT22;11357;49.990;7.370;2023-04-01T04:38:47;11.00;92.10
22379;DHT22;11357;49.990;7.370;2023-04-01T04:41:17;11.00;91.80
22379;DHT22;11357;49.990;7.370;2023-04-01T04:43:53;10.90;91.80
22379;DHT22;11357;49.990;7.370;2023-04-01T04:46:23;10.90;91.80
22379;DHT22;11357;49.990;7.370;2023-04-01T04:48:48;10.90;91.80
22379;DHT22;11357;49.990;7.370;2023-04-01T04:51:18;10.90;91.90
22379;DHT22;11357;49.990;7.370;2023-04-01T04:53:45;10.90;91.90
22379;DHT22;11357;49.990;7.370;2023-04-01T04:56:11;10.90;92.00
22379;DHT22;11357;49.990;7.370;2023-04-01T04:58:38;10.90;92.00
22379;DHT22;11357;49.990;7.370;2023-04-01T05:01:13;10.90;92.00
22379;DHT22;11357;49.990;7.370;2023-04-01T05:03:39;10.90;92.10
22379;DHT22;11357;49.990;7.370;2023-04-01T05:06:06;10.90;92.10
22379;DHT22;11357;49.990;7.370;2023-04-01T05:08:32;10.90;92.10
22379;DHT22;11357;49.990;7.370;2023-04-01T05:10:58;10.90;92.10
22379;DHT22;11357;49.990;7.370;2023-04-01T05:13:24;10.90;92.10
22379;DHT22;11357;49.990;7.370;2023-04-01T05:15:50;10.90;92.10
22379;DHT22;11357;49.990;7.370;2023-04-01T05:18:16;10.90;92.20
22379;DHT22;11357;49.990;7.370;2023-04-01T05:20:50;10.90;92.20
22379;DHT22;11357;49.990;7.370;2023-04-01T05:23:16;10.90;92.20
22379;DHT22;11357;49.990;7.370;2023-04-01T05:25:42;10.90;92.10
22379;DHT22;11357;49.990;7.370;2023-04-01T05:28:08;10.90;92.20
22379;DHT22;11357;49.990;7.370;2023-04-01T05:30:34;11.00;92.20
22379;DHT22;11357;49.990;7.370;2023-04-01T05:33:00;10.90;92.20
22379;DHT22;11357;49.990;7.370;2023-04-01T05:35:26;10.90;92.30
22379;DHT22;11357;49.990;7.370;2023-04-01T05:37:51;10.90;92.40
22379;DHT22;11357;49.990;7.370;2023-04-01T05:40:17;10.90;92.40
22379;DHT22;11357;49.990;7.370;2023-04-01T05:42:43;11.00;92.50
22379;DHT22;11357;49.990;7.370;2023-04-01T05:45:09;11.00;92.60
22379;DHT22;11357;49.990;7.370;2023-04-01T05:47:35;11.00;92.60
22379;DHT22;11357;49.990;7.370;2023-04-01T05:50:01;11.00;92.60
22379;DHT22;11357;49.990;7.370;2023-04-01T05:52:26;11.00;92.60
22379;DHT22;11357;49.990;7.370;2023-04-01T05:54:52;11.10;92.60
22379;DHT22;11357;49.990;7.370;2023-04-01T05:57:18;11.10;92.60
22379;DHT22;11357;49.990;7.370;2023-04-01T05:59:44;11.10;92.60
22379;DHT22;11357;49.990;7.370;2023-04-01T06:02:10;11.20;92.60
22379;DHT22;11357;49.990;7.370;2023-04-01T06:04:39;11.10;92.60
22379;DHT22;11357;49.990;7.370;2023-04-01T06:07:11;11.20;92.70
22379;DHT22;11357;49.990;7.370;2023-04-01T06:09:37;11.20;92.60
22379;DHT22;11357;49.990;7.370;2023-04-01T06:35:14;11.40;92.70
22379;DHT22;11357;49.990;7.370;2023-04-01T06:37:50;11.50;92.70
22379;DHT22;11357;49.990;7.370;2023-04-01T06:40:38;11.50;92.70
22379;DHT22;11357;49.990;7.370;2023-04-01T06:43:38;11.60;92.70
22379;DHT22;11357;49.990;7.370;2023-04-01T06:56:44;12.00;92.60
22379;DHT22;11357;49.990;7.370;2023-04-01T06:59:21;12.00;92.50
22379;DHT22;11357;49.990;7.370;2023-04-01T07:02:02;12.00;92.50
22379;DHT22;11357;49.990;7.370;2023-04-01T07:04:36;12.00;92.50
22379;DHT22;11357;49.990;7.370;2023-04-01T07:09:35;12.10;92.40
22379;DHT22;11357;49.990;7.370;2023-04-01T07:12:22;12.10;92.40
22379;DHT22;11357;49.990;7.370;2023-04-01T07:14:50;12.20;92.40
22379;DHT22;11357;49.990;7.370;2023-04-01T07:17:27;12.20;92.40
22379;DHT22;11357;49.990;7.370;2023-04-01T07:20:02;12.20;92.30
22379;DHT22;11357;49.990;7.370;2023-04-01T07:22:33;12.30;92.30
22379;DHT22;11357;49.990;7.370;2023-04-01T07:25:43;12.40;92.20
22379;DHT22;11357;49.990;7.370;2023-04-01T07:28:15;12.40;92.20
22379;DHT22;11357;49.990;7.370;2023-04-01T07:36:29;12.40;92.00
22379;DHT22;11357;49.990;7.370;2023-04-01T07:50:29;12.40;92.00
22379;DHT22;11357;49.990;7.370;2023-04-01T07:53:21;12.30;92.10
22379;DHT22;11357;49.990;7.370;2023-04-01T07:56:00;12.30;92.20
22379;DHT22;11357;49.990;7.370;2023-04-01T07:58:40;12.40;92.10
22379;DHT22;11357;49.990;7.370;2023-04-01T08:01:31;12.30;92.20
22379;DHT22;11357;49.990;7.370;2023-04-01T08:07:14;12.40;92.10
22379;DHT22;11357;49.990;7.370;2023-04-01T08:18:40;12.50;92.10
22379;DHT22;11357;49.990;7.370;2023-04-01T08:21:21;12.50;92.20
22379;DHT22;11357;49.990;7.370;2023-04-01T08:23:49;12.40;92.10
22379;DHT22;11357;49.990;7.370;2023-04-01T08:26:35;12.50;92.10
22379;DHT22;11357;49.990;7.370;2023-04-01T08:29:33;12.40;92.10
22379;DHT22;11357;49.990;7.370;2023-04-01T08:37:56;12.50;92.00
22379;DHT22;11357;49.990;7.370;2023-04-01T08:46:17;12.60;92.00
22379;DHT22;11357;49.990;7.370;2023-04-01T08:49:00;12.60;92.00
22379;DHT22;11357;49.990;7.370;2023-04-01T09:03:03;12.60;91.70
22379;DHT22;11357;49.990;7.370;2023-04-01T09:12:06;12.60;91.70
22379;DHT22;11357;49.990;7.370;2023-04-01T09:23:10;13.00;91.50
22379;DHT22;11357;49.990;7.370;2023-04-01T09:26:33;13.10;91.30
22379;DHT22;11357;49.990;7.370;2023-04-01T09:32:04;13.20;91.10
22379;DHT22;11357;49.990;7.370;2023-04-01T09:43:22;13.30;90.80
22379;DHT22;11357;49.990;7.370;2023-04-01T09:51:55;13.40;90.60
22379;DHT22;11357;49.990;7.370;2023-04-01T09:57:34;13.60;90.60
22379;DHT22;11357;49.990;7.370;2023-04-01T10:17:16;14.00;90.30
22379;DHT22;11357;49.990;7.370;2023-04-01T10:23:15;14.10;90.00
22379;DHT22;11357;49.990;7.370;2023-04-01T10:29:11;14.20;90.00
22379;DHT22;11357;49.990;7.370;2023-04-01T10:58:34;15.00;87.80
22379;DHT22;11357;49.990;7.370;2023-04-01T11:01:37;15.10;87.80
22379;DHT22;11357;49.990;7.370;2023-04-01T11:07:48;15.60;86.60
22379;DHT22;11357;49.990;7.370;2023-04-01T11:10:51;15.80;86.10
22379;DHT22;11357;49.990;7.370;2023-04-01T11:28:21;16.50;82.80
22379;DHT22;11357;49.990;7.370;2023-04-01T11:34:32;15.90;83.60
22379;DHT22;11357;49.990;7.370;2023-04-01T11:42:57;16.20;84.20
22379;DHT22;11357;49.990;7.370;2023-04-01T11:45:45;16.50;83.60
22379;DHT22;11357;49.990;7.370;2023-04-01T11:48:36;17.00;83.10
22379;DHT22;11357;49.990;7.370;2023-04-01T11:56:49;17.70;81.40
22379;DHT22;11357;49.990;7.370;2023-04-01T12:05:50;18.50;80.10
22379;DHT22;11357;49.990;7.370;2023-04-01T12:08:18;18.80;79.60
22379;DHT22;11357;49.990;7.370;2023-04-01T12:11:09;19.00;78.70
22379;DHT22;11357;49.990;7.370;2023-04-01T12:24:49;18.60;77.70
22379;DHT22;11357;49.990;7.370;2023-04-01T12:55:17;17.60;78.50
22379;DHT22;11357;49.990;7.370;2023-04-01T13:11:35;16.00;81.90
22379;DHT22;11357;49.990;7.370;2023-04-01T13:16:42;16.00;82.80
22379;DHT22;11357;49.990;7.370;2023-04-01T13:19:25;15.90;83.20
22379;DHT22;11357;49.990;7.370;2023-04-01T13:22:23;15.80;83.30
22379;DHT22;11357;49.990;7.370;2023-04-01T13:25:09;15.60;83.90
22379;DHT22;11357;49.990;7.370;2023-04-01T13:27:44;15.50;84.30
22379;DHT22;11357;49.990;7.370;2023-04-01T13:32:55;15.70;85.20
22379;DHT22;11357;49.990;7.370;2023-04-01T13:35:56;15.60;85.00
22379;DHT22;11357;49.990;7.370;2023-04-01T13:41:18;15.20;85.50
22379;DHT22;11357;49.990;7.370;2023-04-01T13:46:54;15.00;86.10
22379;DHT22;11357;49.990;7.370;2023-04-01T13:49:45;14.90;86.30
22379;DHT22;11357;49.990;7.370;2023-04-01T14:00:42;15.80;85.50
22379;DHT22;11357;49.990;7.370;2023-04-01T14:17:06;15.60;85.70
22379;DHT22;11357;49.990;7.370;2023-04-01T14:26:06;16.00;85.30
22379;DHT22;11357;49.990;7.370;2023-04-01T14:50:11;15.60;85.20
22379;DHT22;11357;49.990;7.370;2023-04-01T14:52:41;15.40;85.60
22379;DHT22;11357;49.990;7.370;2023-04-01T14:55:24;15.30;85.80
22379;DHT22;11357;49.990;7.370;2023-04-01T14:58:13;15.10;86.10
22379;DHT22;11357;49.990;7.370;2023-04-01T15:09:12;14.70;87.60
22379;DHT22;11357;49.990;7.370;2023-04-01T15:23:10;14.50;88.70
22379;DHT22;11357;49.990;7.370;2023-04-01T15:34:42;14.70;88.60
22379;DHT22;11357;49.990;7.370;2023-04-01T15:42:55;14.50;88.40
22379;DHT22;11357;49.990;7.370;2023-04-01T16:04:45;14.50;89.30
22379;DHT22;11357;49.990;7.370;2023-04-01T16:10:24;14.40;89.50
22379;DHT22;11357;49.990;7.370;2023-04-01T16:18:40;14.10;90.00
22379;DHT22;11357;49.990;7.370;2023-04-01T16:21:27;14.10;90.00
22379;DHT22;11357;49.990;7.370;2023-04-01T16:26:54;13.90;90.20
22379;DHT22;11357;49.990;7.370;2023-04-01T16:29:58;13.80;90.30
22379;DHT22;11357;49.990;7.370;2023-04-01T16:47:38;13.60;90.70
22379;DHT22;11357;49.990;7.370;2023-04-01T16:55:19;13.60;90.70
22379;DHT22;11357;49.990;7.370;2023-04-01T16:57:52;13.60;90.70
22379;DHT22;11357;49.990;7.370;2023-04-01T17:03:04;13.50;90.80
22379;DHT22;11357;49.990;7.370;2023-04-01T17:11:22;13.40;91.00
22379;DHT22;11357;49.990;7.370;2023-04-01T17:16:37;13.20;91.10
22379;DHT22;11357;49.990;7.370;2023-04-01T17:30:58;13.20;91.30
22379;DHT22;11357;49.990;7.370;2023-04-01T17:57:50;13.10;91.50
22379;DHT22;11357;49.990;7.370;2023-04-01T18:00:24;12.90;91.60
22379;DHT22;11357;49.990;7.370;2023-04-01T18:23:26;12.90;91.70
22379;DHT22;11357;49.990;7.370;2023-04-01T18:25:38;12.90;91.80
22379;DHT22;11357;49.990;7.370;2023-04-01T18:31:04;12.90;91.70
22379;DHT22;11357;49.990;7.370;2023-04-01T18:36:21;12.90;91.80
22379;DHT22;11357;49.990;7.370;2023-04-01T18:38:54;12.80;91.70
22379;DHT22;11357;49.990;7.370;2023-04-01T18:53:08;12.80;91.90
22379;DHT22;11357;49.990;7.370;2023-04-01T18:55:39;12.80;91.90
22379;DHT22;11357;49.990;7.370;2023-04-01T19:17:44;12.60;92.00
22379;DHT22;11357;49.990;7.370;2023-04-01T19:20:20;12.60;92.00
22379;DHT22;11357;49.990;7.370;2023-04-01T19:26:04;12.60;92.10
22379;DHT22;11357;49.990;7.370;2023-04-01T19:31:02;12.60;92.00
22379;DHT22;11357;49.990;7.370;2023-04-01T19:34:02;12.60;92.10
22379;DHT22;11357;49.990;7.370;2023-04-01T19:53:18;12.60;92.00
22379;DHT22;11357;49.990;7.370;2023-04-01T19:56:00;12.60;92.00
22379;DHT22;11357;49.990;7.370;2023-04-01T20:01:04;12.60;92.00
22379;DHT22;11357;49.990;7.370;2023-04-01T20:06:32;12.50;92.00
22379;DHT22;11357;49.990;7.370;2023-04-01T20:12:11;12.50;92.10
22379;DHT22;11357;49.990;7.370;2023-04-01T20:24:51;12.60;92.00
22379;DHT22;11357;49.990;7.370;2023-04-01T20:27:27;12.60;91.90
22379;DHT22;11357;49.990;7.370;2023-04-01T20:32:50;12.50;91.90
22379;DHT22;11357;49.990;7.370;2023-04-01T20:40:45;12.40;91.90
22379;DHT22;11357;49.990;7.370;2023-04-01T20:43:39;12.40;92.00
22379;DHT22;11357;49.990;7.370;2023-04-01T20:46:20;12.40;92.10
22379;DHT22;11357;49.990;7.370;2023-04-01T20:51:39;12.40;92.00
22379;DHT22;11357;49.990;7.370;2023-04-01T20:54:22;12.40;92.00
22379;DHT22;11357;49.990;7.370;2023-04-01T21:02:31;12.40;92.10
22379;DHT22;11357;49.990;7.370;2023-04-01T21:11:12;12.30;92.10
22379;DHT22;11357;49.990;7.370;2023-04-01T21:22:23;12.20;92.10
22379;DHT22;11357;49.990;7.370;2023-04-01T21:39:36;12.20;91.90
22379;DHT22;11357;49.990;7.370;2023-04-01T21:55:53;12.00;92.00
22379;DHT22;11357;49.990;7.370;2023-04-01T22:07:33;12.00;91.90
22379;DHT22;11357;49.990;7.370;2023-04-01T22:13:13;11.90;91.90
22379;DHT22;11357;49.990;7.370;2023-04-01T22:18:18;11.90;91.80
22379;DHT22;11357;49.990;7.370;2023-04-01T22:21:24;11.90;91.80
22379;DHT22;11357;49.990;7.370;2023-04-01T22:23:57;12.00;91.90
22379;DHT22;11357;49.990;7.370;2023-04-01T22:26:37;12.00;91.80
22379;DHT22;11357;49.990;7.370;2023-04-01T22:29:10;12.00;91.80
22379;DHT22;11357;49.990;7.370;2023-04-01T22:31:52;12.10;91.80
22379;DHT22;11357;49.990;7.370;2023-04-01T22:34:26;12.00;91.80
22379;DHT22;11357;49.990;7.370;2023-04-01T22:48:01;12.10;91.70
22379;DHT22;11357;49.990;7.370;2023-04-01T22:55:53;12.10;91.70
22379;DHT22;11357;49.990;7.370;2023-04-01T22:58:31;12.00;91.60
22379;DHT22;11357;49.990;7.370;2023-04-01T23:01:20;12.00;91.70
22379;DHT22;11357;49.990;7.370;2023-04-01T23:03:49;12.00;91.80
22379;DHT22;11357;49.990;7.370;2023-04-01T23:06:29;12.00;91.70
22379;DHT22;11357;49.990;7.370;2023-04-01T23:09:45;11.90;91.70
22379;DHT22;11357;49.990;7.370;2023-04-01T23:14:35;11.90;91.80
22379;DHT22;11357;49.990;7.370;2023-04-01T23:20:20;11.80;91.80
22379;DHT22;11357;49.990;7.370;2023-04-01T23:25:46;11.80;91.80
22379;DHT22;11357;49.990;7.370;2023-04-01T23:33:32;11.80;91.80
22379;DHT22;11357;49.990;7.370;2023-04-01T23:36:00;11.80;91.80
22379;DHT22;11357;49.990;7.370;2023-04-01T23:38:36;11.80;91.80
22379;DHT22;11357;49.990;7.370;2023-04-01T23:41:04;11.80;91.80
22379;DHT22;11357;49.990;7.370;2023-04-01T23:43:35;11.80;91.80
22379;DHT22;11357;49.990;7.370;2023-04-01T23:46:03;11.80;91.80
22379;DHT22;11357;49.990;7.370;2023-04-01T23:48:43;11.80;91.80
22379;DHT22;11357;49.990;7.370;2023-04-01T23:51:27;11.80;91.90
22379;DHT22;11357;49.990;7.370;2023-04-01T23:54:03;11.70;91.80
22379;DHT22;11357;49.990;7.370;2023-04-01T23:56:42;11.80;91.90
22379;DHT22;11357;49.990;7.370;2023-04-01T23:59:29;11.80;91.90
